Time;durP1;ratioP1;P1;durP2;ratioP2;P2;SDS_P1;SDS_P2;PMS_P1;PMS_P2;Temp;Humidity;BMP_temperature;BMP_pressure;BME280_temperature;BME280_humidity;BME280_pressure;Samples;Min_cycle;Max_cycle;Signal;HPM_P1;HPM_P2
2022/06/19 00:01:10;;;;;;;6.43;1.90;;;;;;;;;;5013211;28;94803;-60
2022/06/19 00:03:39;;;;;;;11.05;2.17;;;;;;;;;;5011651;28;95329;-60
2022/06/19 00:06:05;;;;;;;10.27;2.10;;;;;;;;;;5013480;28;93475;-60
2022/06/19 00:08:31;;;;;;;4.88;1.40;;;;;;;;;;5015061;28;92448;-60
2022/06/19 00:10:58;;;;;;;6.72;2.00;;;;;;;;;;5019231;28;94158;-60
2022/06/19 00:13:25;;;;;;;7.13;1.98;;;;;;;;;;5013170;28;92541;-60
2022/06/19 00:15:51;;;;;;;10.02;2.35;;;;;;;;;;5012340;28;93211;-60
2022/06/19 00:18:17;;;;;;;7.05;1.52;;;;;;;;;;5017063;28;92564;-61
2022/06/19 00:20:44;;;;;;;7.00;2.22;;;;;;;;;;5022280;28;92544;-60
2022/06/19 00:23:10;;;;;;;8.48;1.92;;;;;;;;;;5014136;28;93008;-61
2022/06/19 00:25:37;;;;;;;7.13;1.80;;;;;;;;;;5011727;28;95605;-61
2022/06/19 00:28:04;;;;;;;7.63;2.15;;;;;;;;;;5015146;28;94043;-61
2022/06/19 00:30:30;;;;;;;5.13;1.52;;;;;;;;;;5014308;28;93139;-61
2022/06/19 00:32:58;;;;;;;8.45;2.10;;;;;;;;;;5020573;28;93908;-61
2022/06/19 00:35:28;;;;;;;4.13;1.45;;;;;;;;;;5013498;28;93312;-61
2022/06/19 00:37:55;;;;;;;9.55;2.22;;;;;;;;;;5021381;28;93367;-61
2022/06/19 00:40:22;;;;;;;6.53;1.83;;;;;;;;;;5022051;27;92447;-61
2022/06/19 00:42:48;;;;;;;11.30;2.28;;;;;;;;;;5013310;28;93276;-62
2022/06/19 00:45:26;;;;;;;7.43;2.05;;;;;;;;;;5032050;28;94358;-61
2022/06/19 00:47:53;;;;;;;10.45;2.05;;;;;;;;;;5021815;28;93985;-61
2022/06/19 00:50:22;;;;;;;5.47;1.70;;;;;;;;;;5023430;27;94774;-61
2022/06/19 00:52:48;;;;;;;7.00;2.17;;;;;;;;;;5013398;28;93303;-61
2022/06/19 00:55:20;;;;;;;9.50;2.00;;;;;;;;;;5018788;27;92475;-61
2022/06/19 00:57:50;;;;;;;10.80;2.17;;;;;;;;;;5019518;27;93238;-61
2022/06/19 01:00:16;;;;;;;5.83;1.50;;;;;;;;;;5033265;27;92524;-61
2022/06/19 01:02:43;;;;;;;9.90;2.13;;;;;;;;;;5022431;27;93287;-62
2022/06/19 01:05:11;;;;;;;7.05;2.00;;;;;;;;;;5015334;28;94354;-62
2022/06/19 01:07:39;;;;;;;7.28;2.33;;;;;;;;;;5017568;28;91702;-61
2022/06/19 01:10:05;;;;;;;5.57;2.08;;;;;;;;;;5015692;28;92810;-62
2022/06/19 01:12:32;;;;;;;7.90;1.90;;;;;;;;;;5016336;28;93788;-62
2022/06/19 01:15:01;;;;;;;9.90;2.10;;;;;;;;;;5014948;28;94745;-61
2022/06/19 01:17:28;;;;;;;6.22;1.90;;;;;;;;;;5018150;28;96278;-62
2022/06/19 01:19:54;;;;;;;8.20;2.00;;;;;;;;;;5014535;28;92996;-62
2022/06/19 01:22:20;;;;;;;6.05;2.13;;;;;;;;;;5022167;27;93945;-64
2022/06/19 01:25:00;;;;;;;4.25;1.63;;;;;;;;;;5035429;27;93442;-63
2022/06/19 01:30:12;;;;;;;6.57;1.77;;;;;;;;;;5031056;27;94311;-62
2022/06/19 01:32:39;;;;;;;7.68;2.05;;;;;;;;;;5028078;28;92793;-63
2022/06/19 01:35:08;;;;;;;10.43;2.28;;;;;;;;;;5029829;27;92355;-62
2022/06/19 01:37:36;;;;;;;7.63;1.83;;;;;;;;;;5026796;28;93537;-61
2022/06/19 01:40:09;;;;;;;6.03;1.70;;;;;;;;;;5025761;27;94854;-61
2022/06/19 01:42:35;;;;;;;8.15;2.33;;;;;;;;;;5015994;28;95592;-62
2022/06/19 01:45:01;;;;;;;10.63;1.98;;;;;;;;;;5016940;28;93274;-61
2022/06/19 01:47:28;;;;;;;6.03;1.73;;;;;;;;;;5037074;28;92472;-61
2022/06/19 01:49:56;;;;;;;7.18;1.92;;;;;;;;;;5027234;27;94328;-61
2022/06/19 01:52:23;;;;;;;6.28;1.70;;;;;;;;;;5027203;28;94766;-61
2022/06/19 01:54:51;;;;;;;5.60;1.85;;;;;;;;;;5026606;27;92549;-61
2022/06/19 01:57:19;;;;;;;4.60;1.83;;;;;;;;;;5011728;28;93185;-61
2022/06/19 01:59:46;;;;;;;5.90;1.85;;;;;;;;;;5007579;28;93472;-61
2022/06/19 02:02:14;;;;;;;7.13;1.90;;;;;;;;;;5020148;28;92968;-61
2022/06/19 02:04:42;;;;;;;7.90;1.52;;;;;;;;;;5017891;28;95963;-61
2022/06/19 02:07:13;;;;;;;9.27;2.00;;;;;;;;;;5016425;28;92495;-61
2022/06/19 02:09:39;;;;;;;6.70;1.73;;;;;;;;;;5016683;28;93061;-61
2022/06/19 02:12:05;;;;;;;7.55;1.85;;;;;;;;;;5021499;28;93507;-61
2022/06/19 02:14:32;;;;;;;6.07;1.60;;;;;;;;;;5015530;27;92804;-61
2022/06/19 02:17:01;;;;;;;8.85;1.98;;;;;;;;;;5016427;28;92926;-62
2022/06/19 02:19:27;;;;;;;6.72;1.92;;;;;;;;;;5014364;28;93408;-62
2022/06/19 02:21:55;;;;;;;7.40;1.80;;;;;;;;;;5026346;28;91688;-61
2022/06/19 02:24:23;;;;;;;5.90;1.77;;;;;;;;;;5018995;27;93309;-61
2022/06/19 02:26:50;;;;;;;7.65;1.60;;;;;;;;;;5016298;28;92500;-62
2022/06/19 02:29:18;;;;;;;5.90;1.60;;;;;;;;;;5012924;28;94783;-63
2022/06/19 02:31:50;;;;;;;11.77;1.63;;;;;;;;;;5019043;28;94501;-61
2022/06/19 02:34:24;;;;;;;12.27;1.67;;;;;;;;;;5018126;28;93144;-61
2022/06/19 02:37:03;;;;;;;7.13;1.60;;;;;;;;;;5008013;28;92967;-61
2022/06/19 02:39:38;;;;;;;5.55;1.73;;;;;;;;;;5015946;28;93423;-61
2022/06/19 02:42:14;;;;;;;5.72;1.40;;;;;;;;;;5023883;28;92493;-60
2022/06/19 02:44:41;;;;;;;5.80;1.33;;;;;;;;;;5020967;27;94210;-61
2022/06/19 02:47:08;;;;;;;6.85;1.40;;;;;;;;;;5021878;28;91699;-62
2022/06/19 02:49:34;;;;;;;8.77;1.63;;;;;;;;;;5015200;28;93449;-61
2022/06/19 02:52:01;;;;;;;5.15;1.58;;;;;;;;;;5021750;28;93503;-61
2022/06/19 02:54:28;;;;;;;6.40;1.25;;;;;;;;;;5034246;27;95062;-61
2022/06/19 02:56:54;;;;;;;4.13;1.20;;;;;;;;;;5034531;27;95340;-60
2022/06/19 02:59:20;;;;;;;9.07;1.42;;;;;;;;;;5034778;28;95968;-61
2022/06/19 03:01:47;;;;;;;5.25;1.35;;;;;;;;;;5015383;28;92565;-62
2022/06/19 03:04:18;;;;;;;12.27;1.83;;;;;;;;;;5013989;28;93180;-65
2022/06/19 03:06:45;;;;;;;9.23;1.80;;;;;;;;;;5018732;28;93240;-65
2022/06/19 03:09:11;;;;;;;9.23;1.70;;;;;;;;;;5022138;28;92914;-65
2022/06/19 03:11:37;;;;;;;27.08;2.28;;;;;;;;;;5010557;27;92525;-65
2022/06/19 03:14:03;;;;;;;5.35;1.85;;;;;;;;;;5022061;27;93397;-65
2022/06/19 03:16:30;;;;;;;14.18;1.73;;;;;;;;;;5022553;27;93214;-65
2022/06/19 03:18:58;;;;;;;17.80;2.20;;;;;;;;;;5018397;28;96107;-65
2022/06/19 03:21:25;;;;;;;7.13;1.73;;;;;;;;;;5033873;27;92529;-65
2022/06/19 03:23:51;;;;;;;9.65;2.20;;;;;;;;;;5021507;27;94068;-65
2022/06/19 03:26:18;;;;;;;6.05;1.88;;;;;;;;;;5014209;28;93769;-65
2022/06/19 03:28:44;;;;;;;8.50;1.77;;;;;;;;;;5015632;28;94259;-65
2022/06/19 03:31:18;;;;;;;12.10;1.88;;;;;;;;;;5017741;28;93363;-65
2022/06/19 03:33:45;;;;;;;13.48;2.00;;;;;;;;;;5025933;27;92392;-65
2022/06/19 03:36:11;;;;;;;9.73;2.10;;;;;;;;;;5015361;28;92973;-65
2022/06/19 03:38:37;;;;;;;8.95;1.92;;;;;;;;;;5013179;28;93864;-65
2022/06/19 03:41:04;;;;;;;6.97;1.88;;;;;;;;;;5017492;28;92627;-62
2022/06/19 03:43:33;;;;;;;8.20;1.70;;;;;;;;;;5028976;27;94758;-62
2022/06/19 03:46:00;;;;;;;14.65;2.45;;;;;;;;;;5025078;27;93610;-65
2022/06/19 03:48:26;;;;;;;13.45;1.80;;;;;;;;;;5021590;28;92623;-65
2022/06/19 03:50:53;;;;;;;9.80;2.13;;;;;;;;;;5013776;28;94475;-61
2022/06/19 03:53:19;;;;;;;13.70;1.73;;;;;;;;;;5018191;28;92491;-62
2022/06/19 03:55:46;;;;;;;13.25;2.17;;;;;;;;;;5033527;27;92462;-62
2022/06/19 03:58:12;;;;;;;11.93;1.95;;;;;;;;;;5034730;27;93430;-61
2022/06/19 04:00:39;;;;;;;5.05;1.33;;;;;;;;;;5034787;27;91656;-61
2022/06/19 04:03:05;;;;;;;8.98;1.77;;;;;;;;;;5027749;27;92524;-63
2022/06/19 04:05:32;;;;;;;14.40;2.65;;;;;;;;;;5016473;28;93462;-65
2022/06/19 04:07:59;;;;;;;11.88;2.53;;;;;;;;;;5032225;28;94853;-63
2022/06/19 04:10:26;;;;;;;12.27;2.17;;;;;;;;;;5037358;27;95678;-62
2022/06/19 04:12:53;;;;;;;21.30;1.90;;;;;;;;;;5033664;28;92501;-65
2022/06/19 04:15:19;;;;;;;13.30;2.28;;;;;;;;;;5029563;27;93295;-64
2022/06/19 04:17:45;;;;;;;31.60;2.50;;;;;;;;;;5009450;28;93424;-65
2022/06/19 04:20:12;;;;;;;27.38;2.50;;;;;;;;;;5034385;27;92353;-64
2022/06/19 04:22:38;;;;;;;15.00;2.50;;;;;;;;;;5034985;27;94508;-64
2022/06/19 04:25:05;;;;;;;20.05;2.42;;;;;;;;;;5029818;27;92924;-64
2022/06/19 04:27:31;;;;;;;13.80;1.92;;;;;;;;;;5032181;27;92365;-64
2022/06/19 04:29:58;;;;;;;21.08;2.17;;;;;;;;;;5034430;27;92962;-64
2022/06/19 04:32:24;;;;;;;9.27;1.83;;;;;;;;;;5023803;27;96349;-64
2022/06/19 04:34:50;;;;;;;13.82;2.03;;;;;;;;;;5014041;28;95793;-64
2022/06/19 04:37:16;;;;;;;9.07;2.10;;;;;;;;;;5014619;28;93505;-64
2022/06/19 04:39:43;;;;;;;19.08;2.67;;;;;;;;;;5006704;28;93911;-63
2022/06/19 04:42:10;;;;;;;10.45;1.88;;;;;;;;;;5017351;28;93209;-71
2022/06/19 04:44:36;;;;;;;14.55;2.05;;;;;;;;;;5016192;28;93466;-64
2022/06/19 04:47:03;;;;;;;13.43;1.98;;;;;;;;;;5013062;28;93074;-64
2022/06/19 04:49:30;;;;;;;11.80;2.20;;;;;;;;;;5031729;28;93171;-64
2022/06/19 04:51:56;;;;;;;5.60;1.50;;;;;;;;;;5017879;28;93796;-64
2022/06/19 04:54:22;;;;;;;6.78;1.63;;;;;;;;;;5016367;28;92592;-63
2022/06/19 04:56:49;;;;;;;8.45;1.90;;;;;;;;;;5013108;28;95881;-64
2022/06/19 04:59:15;;;;;;;16.48;1.80;;;;;;;;;;5030395;27;92421;-64
2022/06/19 05:01:41;;;;;;;7.78;1.58;;;;;;;;;;5007869;28;94559;-64
2022/06/19 05:04:09;;;;;;;8.73;1.38;;;;;;;;;;5030521;28;93398;-63
2022/06/19 05:06:35;;;;;;;8.90;1.40;;;;;;;;;;5037864;27;92398;-64
2022/06/19 05:09:02;;;;;;;12.27;1.88;;;;;;;;;;5019052;27;93499;-64
2022/06/19 05:11:31;;;;;;;8.10;1.73;;;;;;;;;;5025551;28;93265;-64
2022/06/19 05:13:57;;;;;;;14.27;2.17;;;;;;;;;;5035879;27;91770;-64
2022/06/19 05:16:24;;;;;;;6.90;1.25;;;;;;;;;;5035098;27;92972;-65
2022/06/19 05:18:53;;;;;;;6.30;1.63;;;;;;;;;;5020969;27;92624;-65
2022/06/19 05:21:20;;;;;;;4.07;1.40;;;;;;;;;;5033781;27;95580;-65
2022/06/19 05:23:47;;;;;;;9.90;1.63;;;;;;;;;;5013456;27;92619;-65
2022/06/19 05:26:16;;;;;;;5.95;1.60;;;;;;;;;;5018030;28;92524;-65
2022/06/19 05:28:43;;;;;;;12.98;1.98;;;;;;;;;;5016517;28;92862;-66
2022/06/19 05:31:09;;;;;;;10.18;2.00;;;;;;;;;;5017365;28;94479;-65
2022/06/19 05:33:36;;;;;;;9.32;1.75;;;;;;;;;;5017098;28;92454;-65
2022/06/19 05:36:03;;;;;;;7.63;1.60;;;;;;;;;;5016971;28;93159;-65
2022/06/19 05:38:30;;;;;;;8.32;2.67;;;;;;;;;;5020325;28;94069;-65
2022/06/19 05:40:57;;;;;;;10.05;2.53;;;;;;;;;;5016856;28;92409;-65
2022/06/19 05:43:25;;;;;;;5.28;1.80;;;;;;;;;;5016670;28;93473;-65
2022/06/19 05:45:55;;;;;;;7.45;1.80;;;;;;;;;;5015837;28;94815;-65
2022/06/19 05:48:23;;;;;;;11.15;1.35;;;;;;;;;;5015842;28;96556;-65
2022/06/19 05:51:00;;;;;;;4.82;2.15;;;;;;;;;;5016852;28;94934;-65
2022/06/19 05:53:27;;;;;;;8.20;1.92;;;;;;;;;;5017061;28;92606;-65
2022/06/19 05:55:54;;;;;;;4.53;1.80;;;;;;;;;;5016887;28;94158;-65
2022/06/19 05:58:20;;;;;;;5.97;1.95;;;;;;;;;;5020000;28;94441;-65
2022/06/19 06:00:47;;;;;;;8.32;2.60;;;;;;;;;;5016855;28;93449;-65
2022/06/19 06:03:14;;;;;;;5.88;1.67;;;;;;;;;;5017300;28;93551;-65
2022/06/19 06:05:40;;;;;;;7.20;2.40;;;;;;;;;;5016711;28;92456;-65
2022/06/19 06:08:06;;;;;;;7.57;3.13;;;;;;;;;;5016861;28;93163;-65
2022/06/19 06:10:33;;;;;;;9.18;2.42;;;;;;;;;;5014679;28;97236;-65
2022/06/19 06:12:59;;;;;;;8.32;2.13;;;;;;;;;;5016886;28;92417;-65
2022/06/19 06:15:25;;;;;;;5.28;1.58;;;;;;;;;;5017127;28;93089;-65
2022/06/19 06:17:52;;;;;;;6.25;1.63;;;;;;;;;;5016258;28;93208;-65
2022/06/19 06:20:18;;;;;;;5.95;2.17;;;;;;;;;;5019128;28;92697;-65
2022/06/19 06:22:44;;;;;;;11.60;2.45;;;;;;;;;;5015906;28;93496;-65
2022/06/19 06:25:10;;;;;;;4.88;1.90;;;;;;;;;;5016565;28;92798;-65
2022/06/19 06:27:37;;;;;;;5.60;1.60;;;;;;;;;;5017103;28;92160;-64
2022/06/19 06:30:04;;;;;;;6.18;1.50;;;;;;;;;;5016256;28;93264;-65
2022/06/19 06:32:30;;;;;;;4.43;1.45;;;;;;;;;;5014987;28;92422;-65
2022/06/19 06:34:56;;;;;;;3.17;1.23;;;;;;;;;;5014492;28;94807;-64
2022/06/19 06:37:23;;;;;;;3.17;1.23;;;;;;;;;;5014680;28;93410;-65
2022/06/19 06:39:49;;;;;;;5.82;1.73;;;;;;;;;;5015972;28;92381;-66
2022/06/19 06:42:15;;;;;;;5.95;1.80;;;;;;;;;;5018735;28;93179;-65
2022/06/19 06:44:42;;;;;;;3.60;1.50;;;;;;;;;;5016371;28;92318;-65
2022/06/19 06:47:08;;;;;;;6.88;1.58;;;;;;;;;;5016088;28;94290;-65
2022/06/19 06:49:34;;;;;;;3.83;1.17;;;;;;;;;;5016028;28;93578;-66
2022/06/19 06:52:01;;;;;;;4.18;1.42;;;;;;;;;;5016643;28;91715;-65
2022/06/19 06:54:27;;;;;;;4.50;1.17;;;;;;;;;;5016100;28;92323;-66
2022/06/19 06:56:56;;;;;;;3.92;1.30;;;;;;;;;;5015766;28;93782;-65
2022/06/19 06:59:22;;;;;;;3.08;1.17;;;;;;;;;;5014097;28;94801;-66
2022/06/19 07:01:49;;;;;;;5.10;1.30;;;;;;;;;;5015181;28;95519;-65
2022/06/19 07:04:15;;;;;;;6.30;1.60;;;;;;;;;;5018941;28;94423;-66
2022/06/19 07:06:41;;;;;;;6.32;1.70;;;;;;;;;;5015719;28;93226;-65
2022/06/19 07:09:07;;;;;;;4.82;1.42;;;;;;;;;;5015293;28;93942;-65
2022/06/19 07:11:36;;;;;;;4.57;1.20;;;;;;;;;;5016045;28;93236;-65
2022/06/19 07:14:02;;;;;;;3.42;1.38;;;;;;;;;;5015627;28;93332;-66
2022/06/19 07:16:28;;;;;;;3.65;1.20;;;;;;;;;;5015930;28;93721;-65
2022/06/19 07:18:55;;;;;;;2.33;1.10;;;;;;;;;;5015834;28;92523;-65
2022/06/19 07:21:21;;;;;;;3.88;1.10;;;;;;;;;;5015353;28;93483;-65
2022/06/19 07:23:47;;;;;;;2.70;1.20;;;;;;;;;;5013577;28;95760;-65
2022/06/19 07:26:15;;;;;;;5.63;1.50;;;;;;;;;;5017079;28;92690;-66
2022/06/19 07:28:42;;;;;;;5.70;1.60;;;;;;;;;;5015320;28;93640;-65
2022/06/19 07:31:09;;;;;;;4.40;1.40;;;;;;;;;;5014979;28;92393;-65
2022/06/19 07:33:36;;;;;;;6.93;1.38;;;;;;;;;;5014904;28;93126;-65
2022/06/19 07:36:03;;;;;;;2.33;0.93;;;;;;;;;;5015270;28;94581;-65
2022/06/19 07:38:30;;;;;;;3.80;1.17;;;;;;;;;;5015350;28;92449;-65
2022/06/19 07:40:57;;;;;;;2.50;0.98;;;;;;;;;;5015703;28;93195;-65
2022/06/19 07:43:23;;;;;;;3.03;1.27;;;;;;;;;;5014868;28;94063;-65
2022/06/19 07:45:49;;;;;;;2.72;1.00;;;;;;;;;;5015608;28;92555;-65
2022/06/19 07:51:17;;;;;;;5.32;1.45;;;;;;;;;;4992609;28;92605;-66
2022/06/19 07:53:44;;;;;;;2.65;0.98;;;;;;;;;;4992710;28;92919;-65
2022/06/19 07:56:10;;;;;;;3.05;1.00;;;;;;;;;;4992549;28;93378;-65
2022/06/19 07:58:36;;;;;;;2.63;1.15;;;;;;;;;;4992839;28;92517;-65
2022/06/19 08:01:03;;;;;;;4.40;1.25;;;;;;;;;;4992688;28;93506;-65
2022/06/19 08:03:29;;;;;;;4.40;1.30;;;;;;;;;;4992560;28;94476;-65
2022/06/19 08:05:59;;;;;;;4.18;1.20;;;;;;;;;;4993159;28;91693;-65
2022/06/19 08:08:26;;;;;;;4.05;0.93;;;;;;;;;;4995582;28;93505;-65
2022/06/19 08:10:53;;;;;;;5.85;1.58;;;;;;;;;;4992163;28;92544;-65
2022/06/19 08:13:21;;;;;;;4.35;1.65;;;;;;;;;;4991220;28;94869;-65
2022/06/19 08:15:48;;;;;;;2.25;1.13;;;;;;;;;;4992904;28;93421;-65
2022/06/19 08:18:15;;;;;;;3.88;1.33;;;;;;;;;;4992172;28;92897;-65
2022/06/19 08:20:42;;;;;;;3.10;1.20;;;;;;;;;;4992425;28;93105;-65
2022/06/19 08:23:08;;;;;;;4.43;1.10;;;;;;;;;;4992094;28;94565;-65
2022/06/19 08:25:34;;;;;;;3.00;1.13;;;;;;;;;;4996104;28;92981;-65
2022/06/19 08:28:01;;;;;;;3.30;1.10;;;;;;;;;;5014855;28;93960;-65
2022/06/19 08:30:29;;;;;;;7.07;1.52;;;;;;;;;;5017946;28;92512;-65
2022/06/19 08:33:01;;;;;;;3.75;1.20;;;;;;;;;;5014639;28;92905;-65
2022/06/19 08:35:30;;;;;;;2.95;1.10;;;;;;;;;;5013958;28;93403;-65
2022/06/19 08:37:59;;;;;;;3.75;1.13;;;;;;;;;;5012731;28;94816;-66
2022/06/19 08:40:28;;;;;;;2.70;1.00;;;;;;;;;;5014486;28;95527;-65
2022/06/19 08:43:01;;;;;;;5.28;1.48;;;;;;;;;;5014252;28;94761;-65
2022/06/19 08:45:33;;;;;;;4.43;1.27;;;;;;;;;;5014814;28;92406;-65
2022/06/19 08:48:05;;;;;;;4.65;1.52;;;;;;;;;;5012437;28;93673;-65
2022/06/19 08:50:37;;;;;;;3.25;1.30;;;;;;;;;;5014144;28;93468;-65
2022/06/19 08:53:04;;;;;;;3.50;1.25;;;;;;;;;;5017585;28;92435;-65
2022/06/19 08:55:33;;;;;;;3.85;1.45;;;;;;;;;;5014966;28;92500;-65
2022/06/19 08:58:02;;;;;;;4.80;1.35;;;;;;;;;;5014374;28;92699;-65
2022/06/19 09:00:49;;;;;;;6.75;1.40;;;;;;;;;;5014009;28;92816;-64
2022/06/19 09:06:46;;;;;;;3.08;0.90;;;;;;;;;;5014548;28;92458;-65
2022/06/19 09:09:33;;;;;;;2.10;1.10;;;;;;;;;;5013867;28;93033;-65
2022/06/19 09:11:59;;;;;;;3.28;1.20;;;;;;;;;;5002811;28;92404;-65
2022/06/19 09:14:33;;;;;;;3.83;1.10;;;;;;;;;;5013116;28;92492;-65
2022/06/19 09:17:00;;;;;;;2.45;1.00;;;;;;;;;;5017328;28;92484;-65
2022/06/19 09:19:29;;;;;;;2.67;1.00;;;;;;;;;;5013944;28;92426;-65
2022/06/19 09:21:55;;;;;;;3.47;1.00;;;;;;;;;;5014792;28;93109;-65
2022/06/19 09:24:21;;;;;;;3.38;1.20;;;;;;;;;;5016848;28;93302;-65
2022/06/19 09:26:50;;;;;;;5.03;1.48;;;;;;;;;;5017449;28;92467;-65
2022/06/19 09:29:22;;;;;;;2.53;1.00;;;;;;;;;;5015907;28;94900;-65
2022/06/19 09:31:53;;;;;;;1.95;0.95;;;;;;;;;;5016875;28;94278;-65
2022/06/19 09:34:27;;;;;;;4.53;1.05;;;;;;;;;;5016755;28;92421;-65
2022/06/19 09:37:07;;;;;;;3.90;1.30;;;;;;;;;;5017093;28;92917;-65
2022/06/19 09:39:46;;;;;;;2.75;1.23;;;;;;;;;;5018582;28;93449;-65
2022/06/19 09:42:25;;;;;;;2.37;1.00;;;;;;;;;;5032361;28;93450;-65
2022/06/19 09:45:00;;;;;;;2.05;0.80;;;;;;;;;;5016838;28;93800;-65
2022/06/19 09:47:35;;;;;;;3.28;1.10;;;;;;;;;;5017330;28;91731;-65
2022/06/19 09:50:34;;;;;;;5.85;1.05;;;;;;;;;;5017023;28;92429;-65
2022/06/19 09:53:19;;;;;;;2.78;1.10;;;;;;;;;;5016947;28;92375;-65
2022/06/19 09:56:07;;;;;;;2.72;1.60;;;;;;;;;;5014459;28;94932;-65
2022/06/19 09:58:37;;;;;;;2.80;1.42;;;;;;;;;;5016869;28;95154;-65
2022/06/19 10:01:04;;;;;;;6.13;3.90;;;;;;;;;;5016466;28;93079;-65
2022/06/19 10:03:36;;;;;;;5.18;2.28;;;;;;;;;;5019577;28;92449;-65
2022/06/19 10:06:18;;;;;;;6.13;3.80;;;;;;;;;;5016458;28;93536;-65
2022/06/19 10:08:49;;;;;;;3.63;3.08;;;;;;;;;;5016363;28;92424;-65
2022/06/19 10:11:27;;;;;;;3.88;2.53;;;;;;;;;;5016458;28;93122;-65
2022/06/19 10:14:12;;;;;;;4.93;3.42;;;;;;;;;;5016937;28;92379;-65
2022/06/19 10:16:54;;;;;;;5.45;4.53;;;;;;;;;;5017146;28;92525;-65
2022/06/19 10:19:21;;;;;;;5.43;1.88;;;;;;;;;;5016676;28;93322;-65
2022/06/19 10:24:37;;;;;;;;;;;;;;;;;;5019995;28;92413;-65
2022/06/19 10:27:20;;;;;;;3.58;1.73;;;;;;;;;;5016985;28;124318;-65
2022/06/19 10:29:53;;;;;;;3.97;1.92;;;;;;;;;;5014901;28;92541;-65
2022/06/19 10:32:22;;;;;;;2.63;1.30;;;;;;;;;;5016389;28;92859;-66
2022/06/19 10:35:09;;;;;;;2.55;1.38;;;;;;;;;;5015052;28;94411;-65
2022/06/19 10:37:48;;;;;;;3.63;1.10;;;;;;;;;;5016215;28;92458;-65
2022/06/19 10:40:26;;;;;;;2.97;1.25;;;;;;;;;;5016442;28;93435;-65
2022/06/19 10:43:09;;;;;;;3.05;1.38;;;;;;;;;;5015860;28;93746;-64
2022/06/19 10:45:41;;;;;;;2.95;1.00;;;;;;;;;;5016283;28;92484;-64
2022/06/19 10:48:16;;;;;;;2.33;1.10;;;;;;;;;;5017416;28;94739;-66
2022/06/19 10:50:47;;;;;;;2.65;1.13;;;;;;;;;;5015767;28;92459;-65
2022/06/19 10:53:32;;;;;;;2.67;0.90;;;;;;;;;;5015845;28;92874;-65
2022/06/19 10:55:58;;;;;;;2.42;1.23;;;;;;;;;;5015960;28;94785;-65
2022/06/19 10:58:25;;;;;;;2.92;1.15;;;;;;;;;;5016079;28;92433;-65
2022/06/19 11:00:53;;;;;;;3.30;1.20;;;;;;;;;;5016048;28;92924;-65
2022/06/19 11:06:20;;;;;;;;;;;;;;;;;;5017073;28;91648;-65
2022/06/19 11:08:49;;;;;;;3.42;1.02;;;;;;;;;;5016306;28;122525;-65
2022/06/19 11:11:17;;;;;;;2.88;1.10;;;;;;;;;;5018879;28;93496;-65
2022/06/19 11:14:21;;;;;;;2.95;1.27;;;;;;;;;;5014375;28;94806;-65
2022/06/19 11:16:53;;;;;;;3.15;1.00;;;;;;;;;;4993515;28;94808;-65
2022/06/19 11:19:34;;;;;;;2.70;1.17;;;;;;;;;;4993349;28;92797;-65
2022/06/19 11:22:20;;;;;;;2.15;0.82;;;;;;;;;;4992792;28;93846;-65
2022/06/19 11:24:46;;;;;;;4.25;1.10;;;;;;;;;;4993221;28;94237;-65
2022/06/19 11:27:20;;;;;;;4.30;1.05;;;;;;;;;;4992980;28;92374;-65
2022/06/19 11:29:48;;;;;;;2.50;0.77;;;;;;;;;;4993397;28;94218;-65
2022/06/19 11:32:16;;;;;;;3.03;1.13;;;;;;;;;;4993761;28;92599;-65
2022/06/19 11:34:44;;;;;;;1.67;0.70;;;;;;;;;;4978743;28;92470;-65
2022/06/19 11:37:13;;;;;;;2.53;1.10;;;;;;;;;;4993257;28;94783;-65
2022/06/19 11:39:43;;;;;;;4.03;0.85;;;;;;;;;;4990982;28;94934;-65
2022/06/19 11:42:27;;;;;;;2.25;0.90;;;;;;;;;;4992701;28;95577;-65
2022/06/19 11:44:59;;;;;;;2.65;0.80;;;;;;;;;;4992600;28;93605;-66
2022/06/19 11:47:26;;;;;;;2.83;0.90;;;;;;;;;;4993466;28;92570;-65
2022/06/19 11:50:27;;;;;;;3.85;1.10;;;;;;;;;;4999626;28;93284;-65
2022/06/19 11:52:59;;;;;;;3.10;0.85;;;;;;;;;;5002036;28;93584;-65
2022/06/19 11:55:37;;;;;;;2.63;1.10;;;;;;;;;;5015114;28;92474;-65
2022/06/19 11:58:09;;;;;;;2.08;0.90;;;;;;;;;;5018619;28;94300;-65
2022/06/19 12:00:35;;;;;;;2.10;0.88;;;;;;;;;;5015488;28;93028;-65
2022/06/19 12:03:04;;;;;;;2.05;0.98;;;;;;;;;;5015243;28;92870;-65
2022/06/19 12:05:32;;;;;;;2.33;1.08;;;;;;;;;;5013122;28;96925;-65
2022/06/19 12:08:06;;;;;;;2.25;0.80;;;;;;;;;;5013452;28;92429;-65
2022/06/19 12:10:35;;;;;;;2.70;1.00;;;;;;;;;;5013727;28;92381;-65
2022/06/19 12:13:03;;;;;;;3.45;0.90;;;;;;;;;;5014838;28;94545;-65
2022/06/19 12:15:31;;;;;;;1.77;0.80;;;;;;;;;;5015090;28;92603;-65
2022/06/19 12:17:59;;;;;;;2.25;1.13;;;;;;;;;;5017714;28;93247;-65
2022/06/19 12:20:27;;;;;;;2.00;0.73;;;;;;;;;;5014614;28;92540;-64
2022/06/19 12:23:01;;;;;;;1.88;1.00;;;;;;;;;;5015442;28;94576;-66
2022/06/19 12:25:33;;;;;;;2.60;0.80;;;;;;;;;;5014412;28;93583;-65
2022/06/19 12:28:08;;;;;;;1.75;0.77;;;;;;;;;;5015063;28;92320;-65
2022/06/19 12:30:38;;;;;;;1.88;0.93;;;;;;;;;;5012968;28;94857;-65
2022/06/19 12:33:08;;;;;;;1.75;0.60;;;;;;;;;;5013666;28;93190;-65
2022/06/19 12:35:37;;;;;;;1.77;0.98;;;;;;;;;;5014668;28;92470;-65
2022/06/19 12:38:14;;;;;;;1.23;0.60;;;;;;;;;;5014294;28;92945;-65
2022/06/19 12:40:46;;;;;;;2.65;0.90;;;;;;;;;;5017424;28;93485;-65
2022/06/19 12:43:38;;;;;;;1.60;0.57;;;;;;;;;;5014490;28;93246;-66
2022/06/19 12:46:10;;;;;;;3.42;1.10;;;;;;;;;;4997975;28;93566;-66
2022/06/19 12:48:36;;;;;;;1.70;0.80;;;;;;;;;;5013605;28;92048;-65
2022/06/19 12:51:12;;;;;;;5.93;0.90;;;;;;;;;;5014211;28;92374;-65
2022/06/19 12:53:54;;;;;;;2.55;0.70;;;;;;;;;;5014125;28;93804;-65
2022/06/19 12:56:39;;;;;;;1.65;0.77;;;;;;;;;;5011689;28;94835;-65
2022/06/19 12:59:17;;;;;;;2.45;0.90;;;;;;;;;;5017753;28;96549;-65
2022/06/19 13:02:01;;;;;;;2.40;0.90;;;;;;;;;;5017666;28;93367;-65
2022/06/19 13:04:43;;;;;;;2.00;0.85;;;;;;;;;;5020829;28;92751;-65
2022/06/19 13:07:22;;;;;;;1.83;0.98;;;;;;;;;;5016408;28;93488;-65
2022/06/19 13:10:12;;;;;;;2.60;0.98;;;;;;;;;;5017398;28;92422;-65
2022/06/19 13:12:38;;;;;;;1.83;0.82;;;;;;;;;;5016130;28;92921;-65
2022/06/19 13:15:26;;;;;;;1.15;0.70;;;;;;;;;;5018315;28;92653;-65
2022/06/19 13:17:55;;;;;;;2.47;0.77;;;;;;;;;;5017884;28;92446;-65
2022/06/19 13:20:30;;;;;;;1.50;0.73;;;;;;;;;;5017526;28;92919;-66
2022/06/19 13:23:14;;;;;;;1.15;0.80;;;;;;;;;;5015582;28;95679;-65
2022/06/19 13:25:48;;;;;;;2.20;0.80;;;;;;;;;;5017719;28;92328;-65
2022/06/19 13:28:21;;;;;;;3.78;1.33;;;;;;;;;;5020068;28;93124;-65
2022/06/19 13:31:06;;;;;;;2.00;0.93;;;;;;;;;;5017240;28;92407;-65
2022/06/19 13:33:32;;;;;;;4.80;0.80;;;;;;;;;;5016807;28;92999;-66
2022/06/19 13:36:05;;;;;;;2.15;0.73;;;;;;;;;;5017024;28;94318;-65
2022/06/19 13:38:40;;;;;;;2.15;0.80;;;;;;;;;;5017384;28;92454;-66
2022/06/19 13:41:27;;;;;;;1.65;0.70;;;;;;;;;;5017585;28;93478;-65
2022/06/19 13:44:08;;;;;;;1.90;0.80;;;;;;;;;;5016835;28;93320;-65
2022/06/19 13:46:45;;;;;;;2.28;0.70;;;;;;;;;;5017349;28;92448;-66
2022/06/19 13:49:16;;;;;;;0.88;0.60;;;;;;;;;;5015546;28;94858;-65
2022/06/19 13:51:51;;;;;;;1.83;0.93;;;;;;;;;;5019610;28;93487;-65
2022/06/19 13:54:21;;;;;;;2.05;0.75;;;;;;;;;;5016680;28;93322;-65
2022/06/19 13:56:47;;;;;;;1.85;0.70;;;;;;;;;;5016789;28;93500;-65
2022/06/19 13:59:31;;;;;;;3.22;1.02;;;;;;;;;;5017445;28;92490;-65
2022/06/19 14:02:09;;;;;;;2.13;0.60;;;;;;;;;;5016905;28;94255;-65
2022/06/19 14:04:47;;;;;;;1.67;0.80;;;;;;;;;;5016634;28;94548;-65
2022/06/19 14:07:14;;;;;;;1.58;0.70;;;;;;;;;;5017380;28;91631;-65
2022/06/19 14:10:06;;;;;;;2.28;0.70;;;;;;;;;;5015946;28;93420;-65
2022/06/19 14:12:36;;;;;;;1.48;0.80;;;;;;;;;;5015136;28;93469;-65
2022/06/19 14:15:02;;;;;;;;;;;;;;;;;;5019288;28;94916;-65
2022/06/19 14:17:29;;;;;;;2.58;0.73;;;;;;;;;;5016838;28;124249;-65
2022/06/19 14:20:00;;;;;;;2.30;0.80;;;;;;;;;;5016799;28;92457;-65
2022/06/19 14:22:31;;;;;;;1.48;0.80;;;;;;;;;;5016327;28;93210;-65
2022/06/19 14:24:57;;;;;;;4.25;1.05;;;;;;;;;;5016365;28;93264;-65
2022/06/19 14:27:29;;;;;;;1.80;0.93;;;;;;;;;;5016226;28;92467;-65
2022/06/19 14:29:57;;;;;;;2.13;0.68;;;;;;;;;;5016613;28;94550;-65
2022/06/19 14:32:25;;;;;;;1.33;0.52;;;;;;;;;;5016530;28;92902;-65
2022/06/19 14:34:54;;;;;;;1.15;0.68;;;;;;;;;;5019562;28;92530;-65
2022/06/19 14:37:20;;;;;;;1.45;0.50;;;;;;;;;;5016633;28;92449;-65
2022/06/19 14:39:48;;;;;;;1.15;0.50;;;;;;;;;;5014845;28;94787;-65
2022/06/19 14:42:15;;;;;;;1.33;0.57;;;;;;;;;;5015905;28;95389;-65
2022/06/19 14:44:45;;;;;;;2.03;0.80;;;;;;;;;;5016271;28;94644;-65
2022/06/19 14:47:30;;;;;;;2.47;0.73;;;;;;;;;;5016329;28;92379;-65
2022/06/19 14:50:06;;;;;;;2.47;0.88;;;;;;;;;;5015219;28;94275;-65
2022/06/19 14:52:35;;;;;;;2.85;1.38;;;;;;;;;;5015549;28;93890;-65
2022/06/19 14:55:20;;;;;;;1.13;0.65;;;;;;;;;;5014963;28;92473;-65
2022/06/19 14:57:48;;;;;;;2.67;0.90;;;;;;;;;;5019260;28;93167;-65
2022/06/19 15:00:20;;;;;;;1.30;0.60;;;;;;;;;;5016073;28;92421;-65
2022/06/19 15:02:48;;;;;;;1.85;0.60;;;;;;;;;;5016020;28;92451;-65
2022/06/19 15:05:17;;;;;;;3.22;0.63;;;;;;;;;;5013629;28;96179;-65
2022/06/19 15:07:44;;;;;;;1.27;0.60;;;;;;;;;;5015854;28;92406;-65
2022/06/19 15:10:23;;;;;;;3.92;0.90;;;;;;;;;;5015379;28;94193;-65
2022/06/19 15:12:58;;;;;;;2.10;0.80;;;;;;;;;;5014267;28;93395;-65
2022/06/19 15:15:25;;;;;;;0.77;0.50;;;;;;;;;;5015980;28;92413;-63